createdAt,value
2017-09-30T00:00:32.313Z,18.60
2017-09-30T00:02:59.967Z,18.60
2017-09-30T00:05:27.617Z,18.60
2017-09-30T00:07:55.238Z,18.60
2017-09-30T00:10:23.631Z,18.50
2017-09-30T00:12:51.298Z,18.50
2017-09-30T00:15:18.922Z,18.50
2017-09-30T00:17:46.579Z,18.50
2017-09-30T00:20:14.203Z,18.40
2017-09-30T00:22:41.828Z,18.40
2017-09-30T00:25:10.249Z,18.40
2017-09-30T00:27:37.875Z,18.30
2017-09-30T00:30:05.539Z,18.30
2017-09-30T00:32:33.169Z,18.30
2017-09-30T00:35:00.792Z,18.30
2017-09-30T00:37:28.440Z,18.30
2017-09-30T00:39:56.063Z,18.20
2017-09-30T00:42:24.470Z,18.20
2017-09-30T00:44:52.096Z,18.10
2017-09-30T00:47:19.760Z,18.20
2017-09-30T00:49:47.387Z,18.20
2017-09-30T00:52:15.005Z,18.10
2017-09-30T00:54:42.654Z,18.20
2017-09-30T00:57:11.059Z,18.20
2017-09-30T00:59:38.708Z,18.10
2017-09-30T01:02:07.086Z,18.10
2017-09-30T01:04:35.513Z,18.10
2017-09-30T01:07:03.129Z,18.00
2017-09-30T01:09:31.512Z,18.10
2017-09-30T01:11:59.166Z,18.00
2017-09-30T01:14:27.560Z,18.00
2017-09-30T01:16:55.215Z,18.00
2017-09-30T01:19:22.842Z,18.10
2017-09-30T01:21:50.506Z,18.00
2017-09-30T01:24:18.124Z,18.10
2017-09-30T01:26:45.748Z,18.00
2017-09-30T01:29:14.167Z,18.00
2017-09-30T01:31:41.787Z,18.00
2017-09-30T01:34:10.212Z,18.00
2017-09-30T01:36:37.847Z,18.00
2017-09-30T01:39:05.468Z,18.10
2017-09-30T01:41:33.113Z,18.00
2017-09-30T01:44:00.746Z,18.00
2017-09-30T01:46:28.414Z,18.00
2017-09-30T01:48:56.030Z,18.00
2017-09-30T01:51:23.667Z,18.00
2017-09-30T01:53:51.310Z,18.00
2017-09-30T01:56:18.980Z,18.00
2017-09-30T01:58:46.643Z,18.00
2017-09-30T02:01:14.282Z,18.00
2017-09-30T02:03:41.898Z,18.00
2017-09-30T02:06:10.353Z,18.00
2017-09-30T02:08:37.978Z,17.90
2017-09-30T02:11:05.686Z,18.00
2017-09-30T02:13:33.318Z,18.00
2017-09-30T02:16:00.980Z,18.00
2017-09-30T02:18:28.600Z,18.00
2017-09-30T02:20:57.030Z,17.90
2017-09-30T02:23:24.644Z,17.90
2017-09-30T02:25:53.061Z,17.90
2017-09-30T02:28:20.753Z,17.90
2017-09-30T02:30:48.416Z,17.90
2017-09-30T02:33:16.051Z,17.90
2017-09-30T02:35:43.826Z,17.90
2017-09-30T02:38:11.444Z,17.90
2017-09-30T02:40:39.860Z,17.90
2017-09-30T02:43:07.483Z,17.80
2017-09-30T02:45:35.898Z,17.90
2017-09-30T02:48:03.595Z,17.80
2017-09-30T02:50:31.979Z,17.80
2017-09-30T02:53:00.417Z,17.80
2017-09-30T02:55:28.034Z,17.80
2017-09-30T02:57:56.602Z,17.80
2017-09-30T03:00:24.226Z,17.80
2017-09-30T03:02:52.019Z,17.80
2017-09-30T03:05:19.643Z,17.80
2017-09-30T03:07:47.267Z,17.80
2017-09-30T03:10:15.682Z,17.80
2017-09-30T03:12:43.311Z,17.80
2017-09-30T03:15:11.745Z,17.80
2017-09-30T03:17:39.364Z,17.80
2017-09-30T03:20:07.743Z,17.80
2017-09-30T03:22:36.158Z,17.80
2017-09-30T03:25:03.772Z,17.80
2017-09-30T03:27:32.195Z,17.80
2017-09-30T03:29:59.815Z,17.80
2017-09-30T03:32:28.274Z,17.80
2017-09-30T03:34:57.443Z,17.80
2017-09-30T03:37:25.069Z,17.80
2017-09-30T03:39:52.742Z,17.80
2017-09-30T03:42:20.372Z,17.80
2017-09-30T03:44:47.996Z,17.80
2017-09-30T03:47:15.639Z,17.80
2017-09-30T03:49:43.247Z,17.80
2017-09-30T03:52:10.904Z,17.80
2017-09-30T03:54:39.305Z,17.80
2017-09-30T03:57:06.974Z,17.80
2017-09-30T03:59:35.359Z,17.80
2017-09-30T04:02:03.742Z,17.80
2017-09-30T04:04:32.157Z,17.70
2017-09-30T04:06:59.813Z,17.70
2017-09-30T04:09:27.496Z,17.70
2017-09-30T04:11:55.113Z,17.70
2017-09-30T04:14:23.531Z,17.70
2017-09-30T04:16:51.154Z,17.70
2017-09-30T04:19:19.544Z,17.70
2017-09-30T04:21:47.186Z,17.70
2017-09-30T04:24:15.588Z,17.70
2017-09-30T04:26:43.235Z,17.60
2017-09-30T04:29:11.630Z,17.70
2017-09-30T04:31:39.286Z,17.60
2017-09-30T04:34:06.901Z,17.60
2017-09-30T04:36:34.526Z,17.70
2017-09-30T04:39:02.178Z,17.70
2017-09-30T04:41:29.791Z,17.70
2017-09-30T04:43:57.399Z,17.60
2017-09-30T04:46:25.056Z,17.70
2017-09-30T04:48:52.667Z,17.60
2017-09-30T04:51:20.286Z,17.60
2017-09-30T04:53:47.944Z,17.70
2017-09-30T04:56:15.586Z,17.70
2017-09-30T04:58:43.986Z,17.60
2017-09-30T05:01:11.631Z,17.60
2017-09-30T05:03:40.031Z,17.60
2017-09-30T05:06:07.683Z,17.50
2017-09-30T05:08:35.298Z,17.60
2017-09-30T05:11:02.985Z,17.60
2017-09-30T05:13:31.397Z,17.50
2017-09-30T05:15:59.010Z,17.50
2017-09-30T05:18:26.671Z,17.50
2017-09-30T05:20:54.313Z,17.50
2017-09-30T05:23:22.102Z,17.50
2017-09-30T05:25:49.743Z,17.50
2017-09-30T05:28:17.376Z,17.50
2017-09-30T05:30:45.060Z,17.50
2017-09-30T05:33:12.683Z,17.50
2017-09-30T05:35:40.330Z,17.50
2017-09-30T05:38:08.756Z,17.50
2017-09-30T05:40:36.386Z,17.50
2017-09-30T05:43:04.059Z,17.50
2017-09-30T05:45:31.687Z,17.50
2017-09-30T05:48:00.914Z,17.50
2017-09-30T05:50:28.527Z,17.40
2017-09-30T05:52:56.167Z,17.50
2017-09-30T05:55:23.818Z,17.50
2017-09-30T05:57:51.438Z,17.50
2017-09-30T06:00:19.848Z,17.50
2017-09-30T06:02:47.472Z,17.40
2017-09-30T06:05:15.144Z,17.50
2017-09-30T06:07:43.528Z,17.50
2017-09-30T06:10:11.944Z,17.50
2017-09-30T06:12:39.596Z,17.50
2017-09-30T06:15:07.222Z,17.50
2017-09-30T06:17:35.637Z,17.50
2017-09-30T06:20:03.255Z,17.50
2017-09-30T06:22:30.925Z,17.60
2017-09-30T06:24:58.544Z,17.50
2017-09-30T06:27:26.166Z,17.50
2017-09-30T06:29:54.578Z,17.50
2017-09-30T06:32:22.766Z,17.50
2017-09-30T06:34:50.420Z,17.60
2017-09-30T06:37:18.049Z,17.60
2017-09-30T06:39:45.697Z,17.50
2017-09-30T06:42:14.081Z,17.50
2017-09-30T06:44:42.468Z,17.50
2017-09-30T06:47:10.142Z,17.50
2017-09-30T06:49:37.762Z,17.50
2017-09-30T06:52:05.414Z,17.50
2017-09-30T06:54:33.066Z,17.50
2017-09-30T06:57:01.514Z,17.50
2017-09-30T06:59:29.143Z,17.50
2017-09-30T07:01:57.564Z,17.50
2017-09-30T07:04:25.184Z,17.50
2017-09-30T07:06:53.560Z,17.50
2017-09-30T07:09:21.970Z,17.50
2017-09-30T07:11:49.599Z,17.50
2017-09-30T07:14:18.019Z,17.60
2017-09-30T07:16:45.811Z,17.50
2017-09-30T07:19:13.491Z,17.60
2017-09-30T07:21:41.108Z,17.60
2017-09-30T07:24:08.736Z,17.60
2017-09-30T07:26:37.168Z,17.60
2017-09-30T07:29:04.787Z,17.50
2017-09-30T07:31:33.204Z,17.60
2017-09-30T07:34:00.821Z,17.50
2017-09-30T07:36:29.244Z,17.60
2017-09-30T07:38:56.876Z,17.50
2017-09-30T07:41:24.518Z,17.60
2017-09-30T07:43:52.940Z,17.60
2017-09-30T07:46:20.657Z,17.60
2017-09-30T07:48:49.083Z,17.60
2017-09-30T07:51:16.713Z,17.60
2017-09-30T07:53:45.115Z,17.70
2017-09-30T07:56:12.761Z,17.60
2017-09-30T07:58:41.143Z,17.70
2017-09-30T08:01:08.812Z,17.70
2017-09-30T08:03:36.447Z,17.70
2017-09-30T08:06:04.846Z,17.80
2017-09-30T08:08:32.491Z,17.70
2017-09-30T08:11:00.879Z,17.80
2017-09-30T08:13:29.306Z,17.80
2017-09-30T08:15:56.930Z,17.80
2017-09-30T08:18:25.322Z,17.90
2017-09-30T08:20:52.976Z,17.80
2017-09-30T08:23:20.597Z,17.90
2017-09-30T08:25:48.254Z,17.90
2017-09-30T08:28:15.894Z,17.90
2017-09-30T08:30:43.537Z,18.00
2017-09-30T08:33:11.340Z,18.00
2017-09-30T08:35:39.317Z,18.10
2017-09-30T08:38:07.176Z,18.10
2017-09-30T08:40:34.991Z,18.10
2017-09-30T08:43:02.723Z,18.20
2017-09-30T08:45:30.538Z,18.30
2017-09-30T08:47:58.297Z,18.30
2017-09-30T08:50:25.911Z,18.30
2017-09-30T08:52:53.557Z,18.40
2017-09-30T08:55:21.231Z,18.50
2017-09-30T08:57:48.889Z,18.50
2017-09-30T09:00:16.525Z,18.60
2017-09-30T09:02:44.176Z,18.60
2017-09-30T09:05:15.032Z,18.70
2017-09-30T09:07:42.918Z,18.70
2017-09-30T09:10:10.779Z,18.80
2017-09-30T09:12:38.652Z,18.80
2017-09-30T09:15:06.412Z,18.90
2017-09-30T09:17:34.390Z,18.90
2017-09-30T09:20:02.258Z,19.00
2017-09-30T09:22:30.119Z,19.00
2017-09-30T09:24:58.059Z,19.10
2017-09-30T09:27:25.681Z,19.10
2017-09-30T09:29:54.091Z,19.20
2017-09-30T09:32:21.877Z,19.20
2017-09-30T09:34:49.541Z,19.30
2017-09-30T09:37:17.164Z,19.30
2017-09-30T09:39:44.895Z,19.40
2017-09-30T09:42:12.549Z,19.40
2017-09-30T09:44:40.192Z,19.50
2017-09-30T09:47:07.888Z,19.50
2017-09-30T09:49:36.275Z,19.60
2017-09-30T09:52:04.687Z,19.60
2017-09-30T09:54:32.314Z,19.60
2017-09-30T09:57:00.767Z,19.80
2017-09-30T09:59:28.391Z,19.70
2017-09-30T10:01:56.012Z,19.80
2017-09-30T10:04:23.683Z,19.80
2017-09-30T10:06:52.071Z,19.90
2017-09-30T10:09:20.602Z,19.90
2017-09-30T10:11:48.223Z,19.90
2017-09-30T10:14:15.851Z,20.00
2017-09-30T10:16:43.529Z,20.00
2017-09-30T10:19:11.999Z,20.10
2017-09-30T10:21:39.835Z,20.10
2017-09-30T10:24:07.462Z,20.20
2017-09-30T10:26:35.167Z,20.20
2017-09-30T10:29:02.818Z,20.20
2017-09-30T10:31:30.507Z,20.20
2017-09-30T10:33:58.165Z,20.20
2017-09-30T10:36:25.791Z,20.20
2017-09-30T10:38:53.476Z,20.20
2017-09-30T10:41:21.339Z,20.20
2017-09-30T10:43:49.016Z,20.20
2017-09-30T10:46:16.642Z,20.20
2017-09-30T10:48:44.339Z,20.20
2017-09-30T10:51:12.001Z,20.20
2017-09-30T10:53:39.650Z,20.20
2017-09-30T10:56:07.264Z,20.30
2017-09-30T10:58:35.649Z,20.30
2017-09-30T11:01:03.297Z,20.20
2017-09-30T11:03:31.758Z,20.30
2017-09-30T11:05:59.417Z,20.30
2017-09-30T11:08:27.061Z,20.20
2017-09-30T11:10:54.698Z,20.30
2017-09-30T11:13:22.394Z,20.20
2017-09-30T11:15:50.041Z,20.20
2017-09-30T11:18:17.689Z,20.20
2017-09-30T11:20:45.660Z,20.20
2017-09-30T11:23:13.285Z,20.20
2017-09-30T11:25:41.714Z,20.20
2017-09-30T11:28:09.343Z,20.20
2017-09-30T11:30:36.997Z,20.10
2017-09-30T11:33:05.382Z,20.10
2017-09-30T11:35:33.005Z,20.10
2017-09-30T11:38:00.651Z,20.10
2017-09-30T11:40:28.271Z,20.10
2017-09-30T11:42:55.943Z,20.10
2017-09-30T11:45:23.566Z,20.10
2017-09-30T11:47:51.214Z,20.10
2017-09-30T11:50:18.836Z,20.10
2017-09-30T11:52:46.530Z,20.10
2017-09-30T11:55:14.195Z,20.10
2017-09-30T11:57:41.940Z,20.10
2017-09-30T12:00:09.613Z,20.10
2017-09-30T12:02:37.238Z,20.10
2017-09-30T12:05:04.933Z,20.10
2017-09-30T12:07:32.558Z,20.10
2017-09-30T12:10:00.181Z,20.20
2017-09-30T12:12:27.827Z,20.20
2017-09-30T12:14:55.473Z,20.20
2017-09-30T12:17:23.127Z,20.20
2017-09-30T12:19:50.750Z,20.20
2017-09-30T12:22:19.134Z,20.30
2017-09-30T12:24:47.552Z,20.30
2017-09-30T12:27:15.162Z,20.20
2017-09-30T12:29:43.579Z,20.30
2017-09-30T12:32:11.191Z,20.30
2017-09-30T12:34:38.854Z,20.30
2017-09-30T12:37:06.484Z,20.30
2017-09-30T12:39:34.138Z,20.30
2017-09-30T12:42:01.751Z,20.30
2017-09-30T12:44:30.179Z,20.30
2017-09-30T12:46:57.915Z,20.30
2017-09-30T12:49:25.678Z,20.30
2017-09-30T12:51:53.463Z,20.30
2017-09-30T12:54:21.109Z,20.40
2017-09-30T12:56:48.763Z,20.30
2017-09-30T12:59:17.146Z,20.30
2017-09-30T13:01:44.802Z,20.30
2017-09-30T13:04:12.442Z,20.30
2017-09-30T13:06:40.073Z,20.30
2017-09-30T13:09:07.724Z,20.30
2017-09-30T13:11:35.350Z,20.30
2017-09-30T13:14:03.772Z,20.30
2017-09-30T13:16:31.391Z,20.20
2017-09-30T13:18:59.829Z,20.30
2017-09-30T13:21:27.459Z,20.20
2017-09-30T13:23:55.100Z,20.30
2017-09-30T13:26:22.744Z,20.30
2017-09-30T13:28:51.136Z,20.20
2017-09-30T13:31:19.567Z,20.20
2017-09-30T13:33:47.175Z,20.20
2017-09-30T13:36:15.560Z,20.20
2017-09-30T13:38:43.999Z,20.20
2017-09-30T13:41:11.685Z,20.10
2017-09-30T13:43:39.347Z,20.20
2017-09-30T13:46:06.963Z,20.20
2017-09-30T13:48:34.589Z,20.20
2017-09-30T13:51:03.012Z,20.20
2017-09-30T13:53:30.631Z,20.20
2017-09-30T13:55:59.070Z,20.20
2017-09-30T13:58:26.711Z,20.20
2017-09-30T14:00:54.342Z,20.30
2017-09-30T14:03:21.996Z,20.30
2017-09-30T14:05:50.426Z,20.30
2017-09-30T14:08:18.053Z,20.20
2017-09-30T14:10:45.703Z,20.30
2017-09-30T14:13:14.132Z,20.30
2017-09-30T14:15:41.797Z,20.30
2017-09-30T14:18:09.456Z,20.30
2017-09-30T14:20:37.122Z,20.30
2017-09-30T14:23:04.800Z,20.30
2017-09-30T14:25:32.421Z,20.30
2017-09-30T14:28:00.043Z,20.30
2017-09-30T14:30:28.457Z,20.40
2017-09-30T14:32:56.075Z,20.30
2017-09-30T14:35:24.516Z,20.40
2017-09-30T14:37:52.175Z,20.40
2017-09-30T14:40:19.804Z,20.40
2017-09-30T14:42:47.463Z,20.40
2017-09-30T14:45:15.841Z,20.40
2017-09-30T14:47:44.266Z,20.40
2017-09-30T14:50:11.898Z,20.40
2017-09-30T14:52:39.595Z,20.40
2017-09-30T14:55:07.257Z,20.40
2017-09-30T14:57:34.883Z,20.40
2017-09-30T15:00:02.534Z,20.40
2017-09-30T15:02:30.162Z,20.40
2017-09-30T15:04:59.451Z,20.40
2017-09-30T15:07:27.078Z,20.40
2017-09-30T15:09:54.695Z,20.50
2017-09-30T15:12:22.356Z,20.50
2017-09-30T15:14:49.981Z,20.50
2017-09-30T15:17:17.642Z,20.50
2017-09-30T15:19:45.271Z,20.50
2017-09-30T15:22:12.943Z,20.50
2017-09-30T15:24:40.581Z,20.50
2017-09-30T15:27:08.990Z,20.40
2017-09-30T15:29:36.627Z,20.40
2017-09-30T15:32:05.044Z,20.40
2017-09-30T15:34:32.663Z,20.40
2017-09-30T15:37:01.049Z,20.40
2017-09-30T15:39:28.698Z,20.40
2017-09-30T15:41:57.088Z,20.40
2017-09-30T15:44:25.515Z,20.40
2017-09-30T15:46:53.147Z,20.30
2017-09-30T15:49:20.775Z,20.30
2017-09-30T15:51:48.513Z,20.30
2017-09-30T15:54:16.133Z,20.30
2017-09-30T15:56:43.800Z,20.30
2017-09-30T15:59:11.502Z,20.30
2017-09-30T16:01:39.157Z,20.30
2017-09-30T16:04:06.811Z,20.20
2017-09-30T16:06:34.436Z,20.20
2017-09-30T16:09:02.109Z,20.20
2017-09-30T16:11:29.802Z,20.20
2017-09-30T16:13:57.450Z,20.20
2017-09-30T16:16:25.070Z,20.20
2017-09-30T16:18:53.452Z,20.10
2017-09-30T16:21:21.877Z,20.10
2017-09-30T16:23:49.502Z,20.10
2017-09-30T16:26:17.147Z,20.10
2017-09-30T16:28:45.597Z,20.10
2017-09-30T16:31:13.236Z,20.00
2017-09-30T16:33:40.846Z,20.00
2017-09-30T16:36:08.500Z,20.00
2017-09-30T16:38:36.135Z,20.00
2017-09-30T16:41:03.771Z,20.00
2017-09-30T16:43:31.434Z,20.00
2017-09-30T16:46:00.103Z,20.00
2017-09-30T16:48:27.736Z,19.90
2017-09-30T16:50:55.566Z,19.90
2017-09-30T16:53:23.340Z,19.90
2017-09-30T16:55:51.194Z,19.90
2017-09-30T16:58:18.988Z,19.90
2017-09-30T17:00:46.814Z,19.90
2017-09-30T17:03:14.852Z,19.90
2017-09-30T17:05:42.706Z,19.90
2017-09-30T17:08:10.528Z,19.90
2017-09-30T17:10:38.318Z,19.90
2017-09-30T17:13:06.175Z,19.80
2017-09-30T17:15:34.792Z,19.80
2017-09-30T17:18:02.582Z,19.70
2017-09-30T17:20:31.274Z,19.80
2017-09-30T17:22:59.056Z,19.70
2017-09-30T17:25:26.945Z,19.70
2017-09-30T17:27:54.712Z,19.70
2017-09-30T17:30:22.509Z,19.70
2017-09-30T17:32:50.454Z,19.70
2017-09-30T17:35:18.330Z,19.70
2017-09-30T17:37:46.299Z,19.70
2017-09-30T17:40:14.171Z,19.70
2017-09-30T17:42:42.126Z,19.70
2017-09-30T17:45:10.004Z,19.70
2017-09-30T17:47:37.961Z,19.70
2017-09-30T17:50:05.831Z,19.70
2017-09-30T17:52:34.110Z,19.70
2017-09-30T17:55:01.976Z,19.70
2017-09-30T17:57:29.685Z,19.70
2017-09-30T17:59:58.087Z,19.60
2017-09-30T18:02:25.702Z,19.60
2017-09-30T18:04:53.346Z,19.60
2017-09-30T18:07:20.966Z,19.60
2017-09-30T18:09:48.616Z,19.60
2017-09-30T18:12:16.237Z,19.60
2017-09-30T18:14:43.888Z,19.60
2017-09-30T18:17:11.554Z,19.60
2017-09-30T18:19:39.203Z,19.60
2017-09-30T18:22:06.962Z,19.60
2017-09-30T18:24:34.618Z,19.60
2017-09-30T18:27:02.307Z,19.50
2017-09-30T18:29:29.926Z,19.50
2017-09-30T18:31:57.566Z,19.50
2017-09-30T18:34:25.946Z,19.50
2017-09-30T18:36:54.360Z,19.50
2017-09-30T18:39:21.979Z,19.40
2017-09-30T18:41:50.408Z,19.40
2017-09-30T18:44:18.059Z,19.40
2017-09-30T18:46:45.874Z,19.40
2017-09-30T18:49:13.706Z,19.40
2017-09-30T18:51:41.538Z,19.40
2017-09-30T18:54:09.422Z,19.40
2017-09-30T18:56:37.227Z,19.40
2017-09-30T18:59:05.369Z,19.40
2017-09-30T19:01:33.202Z,19.40
2017-09-30T19:04:01.765Z,19.40
2017-09-30T19:06:31.148Z,19.30
2017-09-30T19:08:59.121Z,19.30
2017-09-30T19:11:27.097Z,19.40
2017-09-30T19:13:55.779Z,19.30
2017-09-30T19:16:23.741Z,19.30
2017-09-30T19:18:51.436Z,19.30
2017-09-30T19:21:19.883Z,19.30
2017-09-30T19:23:47.547Z,19.20
2017-09-30T19:26:15.199Z,19.30
2017-09-30T19:28:42.875Z,19.30
2017-09-30T19:31:10.534Z,19.30
2017-09-30T19:33:38.166Z,19.30
2017-09-30T19:36:05.795Z,19.20
2017-09-30T19:38:34.230Z,19.20
2017-09-30T19:41:01.833Z,19.20
2017-09-30T19:43:30.247Z,19.10
2017-09-30T19:45:57.871Z,19.10
2017-09-30T19:48:26.287Z,19.10
2017-09-30T19:50:53.966Z,19.10
2017-09-30T19:53:21.631Z,19.10
2017-09-30T19:55:49.278Z,19.10
2017-09-30T19:58:16.920Z,19.10
2017-09-30T20:00:44.548Z,19.10
2017-09-30T20:03:12.199Z,19.10
2017-09-30T20:05:39.815Z,19.10
2017-09-30T20:08:07.511Z,19.10
2017-09-30T20:10:35.203Z,19.10
2017-09-30T20:13:03.595Z,19.00
2017-09-30T20:15:31.999Z,19.00
2017-09-30T20:17:59.997Z,19.00
2017-09-30T20:20:27.859Z,19.00
2017-09-30T20:22:55.641Z,19.00
2017-09-30T20:25:23.442Z,19.00
2017-09-30T20:27:52.079Z,19.00
2017-09-30T20:30:19.974Z,19.00
2017-09-30T20:32:47.800Z,19.00
2017-09-30T20:35:15.625Z,18.90
2017-09-30T20:37:44.250Z,19.00
2017-09-30T20:40:12.035Z,18.90
2017-09-30T20:42:39.886Z,18.90
2017-09-30T20:45:07.698Z,18.90
2017-09-30T20:47:35.498Z,18.90
2017-09-30T20:50:03.399Z,18.90
2017-09-30T20:52:31.202Z,18.90
2017-09-30T20:54:59.790Z,18.80
2017-09-30T20:57:28.366Z,18.80
2017-09-30T20:59:57.569Z,18.80
2017-09-30T21:02:25.433Z,18.80
2017-09-30T21:04:53.222Z,18.70
2017-09-30T21:07:21.041Z,18.70
2017-09-30T21:09:48.796Z,18.70
2017-09-30T21:12:16.638Z,18.70
2017-09-30T21:14:44.433Z,18.60
2017-09-30T21:17:17.227Z,18.60
2017-09-30T21:19:45.009Z,18.50
2017-09-30T21:22:12.792Z,18.50
2017-09-30T21:24:41.379Z,18.40
2017-09-30T21:27:10.023Z,18.40
2017-09-30T21:29:37.993Z,18.30
2017-09-30T21:32:05.857Z,18.30
2017-09-30T21:34:33.735Z,18.30
2017-09-30T21:37:01.693Z,18.30
2017-09-30T21:39:29.567Z,18.20
2017-09-30T21:42:00.439Z,18.20
2017-09-30T21:44:28.468Z,18.20
2017-09-30T21:46:57.667Z,18.10
2017-09-30T21:49:25.643Z,18.10
2017-09-30T21:51:53.509Z,18.00
2017-09-30T21:54:21.477Z,18.00
2017-09-30T21:56:49.343Z,18.00
2017-09-30T21:59:17.310Z,17.90
2017-09-30T22:01:45.177Z,17.90
2017-09-30T22:04:13.043Z,17.90
2017-09-30T22:06:41.019Z,17.90
2017-09-30T22:09:08.881Z,17.90
2017-09-30T22:11:36.752Z,17.80
2017-09-30T22:14:04.726Z,17.80
2017-09-30T22:16:32.505Z,17.80
2017-09-30T22:19:01.037Z,17.70
2017-09-30T22:21:28.709Z,17.70
2017-09-30T22:23:56.376Z,17.70
2017-09-30T22:26:24.050Z,17.70
2017-09-30T22:28:51.803Z,17.60
2017-09-30T22:31:19.595Z,17.70
2017-09-30T22:33:47.480Z,17.60
2017-09-30T22:36:16.060Z,17.60
2017-09-30T22:38:44.620Z,17.60
2017-09-30T22:41:12.431Z,17.50
2017-09-30T22:43:40.177Z,17.60
2017-09-30T22:46:08.597Z,17.60
2017-09-30T22:48:36.425Z,17.50
2017-09-30T22:51:04.987Z,17.50
2017-09-30T22:53:32.739Z,17.50
2017-09-30T22:56:00.531Z,17.50
2017-09-30T22:58:29.006Z,17.50
2017-09-30T23:00:57.791Z,17.50
2017-09-30T23:03:25.432Z,17.50
2017-09-30T23:05:53.045Z,17.50
2017-09-30T23:08:21.568Z,17.50
2017-09-30T23:10:49.336Z,17.50
2017-09-30T23:13:17.010Z,17.50
2017-09-30T23:15:44.622Z,17.50
2017-09-30T23:18:12.243Z,17.50
2017-09-30T23:20:39.910Z,17.50
2017-09-30T23:23:07.531Z,17.50
2017-09-30T23:25:35.196Z,17.50
2017-09-30T23:28:02.806Z,17.50
2017-09-30T23:30:31.229Z,17.50
2017-09-30T23:32:58.843Z,17.50
2017-09-30T23:35:26.482Z,17.50
2017-09-30T23:37:54.113Z,17.50
2017-09-30T23:40:21.746Z,17.50
2017-09-30T23:42:50.178Z,17.50
2017-09-30T23:45:17.789Z,17.50
2017-09-30T23:47:46.189Z,17.50
2017-09-30T23:50:13.840Z,17.40
2017-09-30T23:52:42.218Z,17.50
2017-09-30T23:55:09.866Z,17.40
2017-09-30T23:57:38.307Z,17.40
